Time;durP1;ratioP1;P1;durP2;ratioP2;P2;SDS_P1;SDS_P2;PMS_P1;PMS_P2;Temp;Humidity;BMP_temperature;BMP_pressure;BME280_temperature;BME280_humidity;BME280_pressure;Samples;Min_cycle;Max_cycle;Signal;HPM_P1;HPM_P2
2023/01/19 00:02:18;;;;;;;26.37;7.77;;;;;;;10.39;88.21;99615.07;124637;1102;104320;-77
2023/01/19 00:04:49;;;;;;;24.57;7.60;;;;;;;10.38;87.95;99623.78;124604;1102;101947;-76
2023/01/19 00:07:20;;;;;;;24.87;7.30;;;;;;;10.38;87.46;99623.78;124680;1102;102050;-77
2023/01/19 00:09:52;;;;;;;27.33;7.53;;;;;;;10.37;88.00;99624.62;124603;1102;101841;-76
2023/01/19 00:12:23;;;;;;;23.60;7.07;;;;;;;10.35;87.90;99623.70;124834;1102;104175;-76
2023/01/19 00:14:54;;;;;;;26.37;7.30;;;;;;;10.33;87.77;99622.80;124579;1102;117979;-77
2023/01/19 00:17:26;;;;;;;29.45;7.90;;;;;;;10.33;88.04;99645.48;124607;1102;104172;-76
2023/01/19 00:19:57;;;;;;;30.90;7.80;;;;;;;10.31;87.96;99642.80;124637;1102;104207;-76
2023/01/19 00:22:28;;;;;;;22.10;6.93;;;;;;;10.31;87.70;99641.92;124716;1102;104210;-77
2023/01/19 00:24:59;;;;;;;20.93;6.73;;;;;;;10.30;88.03;99641.05;124598;1102;101891;-77
2023/01/19 00:27:33;;;;;;;24.73;6.77;;;;;;;10.29;87.92;99639.27;124688;1102;104284;-76
2023/01/19 00:30:03;;;;;;;;;;;;;;;10.32;87.96;99646.33;124738;1102;104208;-77
2023/01/19 00:32:34;;;;;;;27.90;6.67;;;;;;;10.33;88.21;99649.02;124721;1102;104259;-77
2023/01/19 00:35:06;;;;;;;22.63;6.90;;;;;;;10.33;87.97;99656.89;124631;1102;104271;-77
2023/01/19 00:37:38;;;;;;;21.87;6.57;;;;;;;10.35;88.00;99646.44;124650;1102;102151;-77
2023/01/19 00:40:11;;;;;;;22.80;6.23;;;;;;;10.35;88.06;99647.31;124631;1102;102213;-77
2023/01/19 00:42:44;;;;;;;26.63;7.07;;;;;;;10.36;87.94;99651.71;124669;1102;104165;-77
2023/01/19 00:45:18;;;;;;;29.23;6.90;;;;;;;10.38;88.06;99657.87;124650;1102;101865;-76
2023/01/19 00:47:53;;;;;;;25.67;7.10;;;;;;;10.37;88.35;99648.22;124570;1102;102093;-77
2023/01/19 00:50:25;;;;;;;24.50;6.57;;;;;;;10.36;87.84;99637.70;124659;1102;104207;-77
2023/01/19 00:52:59;;;;;;;25.83;7.00;;;;;;;10.37;88.20;99628.98;124640;1102;102772;-77
2023/01/19 00:55:32;;;;;;;18.60;6.50;;;;;;;10.38;87.91;99631.64;124596;1102;102372;-76
2023/01/19 00:58:03;;;;;;;25.30;6.30;;;;;;;10.37;87.79;99632.48;124724;1102;104076;-77
2023/01/19 01:00:34;;;;;;;22.77;6.70;;;;;;;10.34;87.99;99635.03;124646;1102;104176;-77
2023/01/19 01:03:06;;;;;;;20.43;6.10;;;;;;;10.33;87.73;99637.63;124669;1102;104181;-77
2023/01/19 01:05:40;;;;;;;22.93;5.97;;;;;;;10.31;87.98;99640.17;124414;1102;104368;-77
2023/01/19 01:08:11;;;;;;;23.40;6.73;;;;;;;10.30;87.88;99642.77;124657;1102;102443;-77
2023/01/19 01:10:43;;;;;;;25.00;6.23;;;;;;;10.29;88.02;99639.27;124591;1101;104198;-76
2023/01/19 01:13:14;;;;;;;26.77;6.00;;;;;;;10.29;87.76;99634.02;124616;1102;104194;-76
2023/01/19 01:15:45;;;;;;;26.20;6.33;;;;;;;10.30;87.99;99642.77;124614;1102;104214;-77
2023/01/19 01:18:16;;;;;;;23.37;6.10;;;;;;;10.29;88.12;99639.27;124620;1102;102044;-77
2023/01/19 01:20:47;;;;;;;23.27;6.50;;;;;;;10.27;87.90;99643.60;124547;1102;101951;-77
2023/01/19 01:23:21;;;;;;;23.37;5.83;;;;;;;10.26;87.91;99636.58;124691;1102;104223;-77
2023/01/19 01:25:52;;;;;;;21.57;5.85;;;;;;;10.26;88.17;99637.45;124682;1102;104331;-77
2023/01/19 01:28:23;;;;;;;22.70;5.87;;;;;;;10.26;87.86;99631.33;124671;1102;104197;-77
2023/01/19 01:30:56;;;;;;;29.23;6.73;;;;;;;10.27;88.04;99638.36;124626;1102;102000;-76
2023/01/19 01:33:27;;;;;;;31.63;6.33;;;;;;;10.25;88.19;99635.70;124651;1102;104217;-77
2023/01/19 01:35:59;;;;;;;21.13;5.93;;;;;;;10.26;88.19;99628.70;124649;1101;104239;-77
2023/01/19 01:38:30;;;;;;;24.77;6.10;;;;;;;10.25;88.46;99634.79;124689;1102;104166;-77
2023/01/19 01:41:01;;;;;;;21.97;5.97;;;;;;;10.24;88.48;99639.16;124661;1102;101856;-77
2023/01/19 01:43:46;;;;;;;19.80;6.73;;;;;;;10.28;88.53;99644.48;124674;1102;104172;-77
2023/01/19 01:46:19;;;;;;;24.13;6.20;;;;;;;10.27;88.13;99640.98;124593;1101;104172;-77
2023/01/19 01:48:56;;;;;;;23.97;5.80;;;;;;;10.29;88.36;99630.52;124624;1102;104268;-77
2023/01/19 01:51:33;;;;;;;22.80;6.43;;;;;;;10.29;88.12;99641.02;124512;1102;104932;-77
2023/01/19 01:54:13;;;;;;;25.37;6.60;;;;;;;10.26;88.32;99632.20;124647;1102;104351;-77
2023/01/19 01:56:47;;;;;;;20.97;6.13;;;;;;;10.24;88.28;99633.91;124351;1102;102015;-76
2023/01/19 01:59:25;;;;;;;25.80;6.27;;;;;;;10.24;88.50;99631.30;124583;1102;104226;-77
2023/01/19 02:04:53;;;;;;;23.97;6.10;;;;;;;10.24;88.79;99630.42;124578;1102;104248;-77
2023/01/19 02:13:18;;;;;;;28.80;6.07;;;;;;;10.24;88.67;99617.31;124640;1102;104194;-77
2023/01/19 02:15:51;;;;;;;23.80;6.83;;;;;;;10.23;88.35;99631.26;124636;1102;104226;-77
2023/01/19 02:18:24;;;;;;;24.63;6.45;;;;;;;10.22;88.33;99624.23;124566;1102;104185;-77
2023/01/19 02:21:03;;;;;;;24.67;6.17;;;;;;;10.22;88.05;99613.74;124628;1102;104172;-77
2023/01/19 02:23:40;;;;;;;26.17;6.30;;;;;;;10.18;88.52;99625.03;124649;1102;101915;-77
2023/01/19 02:26:14;;;;;;;24.10;6.40;;;;;;;10.16;88.70;99625.00;124660;1102;102220;-77
2023/01/19 02:28:50;;;;;;;24.90;6.28;;;;;;;10.16;88.26;99625.00;124643;1102;104172;-77
2023/01/19 02:31:21;;;;;;;21.27;5.93;;;;;;;10.16;88.19;99616.22;124709;1102;104211;-77
2023/01/19 02:33:53;;;;;;;26.90;6.23;;;;;;;10.15;88.20;99617.09;124663;1102;104268;-77
2023/01/19 02:36:27;;;;;;;26.37;6.30;;;;;;;10.15;88.61;99617.09;124623;1102;104300;-77
2023/01/19 02:39:00;;;;;;;23.70;6.10;;;;;;;10.12;88.07;99609.16;124652;1102;104383;-77
2023/01/19 02:41:34;;;;;;;24.40;6.03;;;;;;;10.11;88.32;99620.48;124626;1102;101938;-77
2023/01/19 02:44:07;;;;;;;28.87;6.23;;;;;;;10.09;88.67;99617.83;124641;1101;101997;-77
2023/01/19 02:46:38;;;;;;;27.87;6.23;;;;;;;10.08;88.69;99622.20;124572;1102;101881;-77
2023/01/19 02:49:09;;;;;;;24.20;6.00;;;;;;;10.06;89.05;99623.88;124682;1102;102079;-77
2023/01/19 02:51:42;;;;;;;27.77;6.73;;;;;;;10.06;88.89;99618.63;124638;1102;104188;-77
2023/01/19 02:54:28;;;;;;;27.17;5.77;;;;;;;10.04;88.44;99619.47;124642;1102;104211;-77
2023/01/19 02:57:27;;;;;;;25.20;5.60;;;;;;;10.04;88.98;99611.59;124609;1102;102122;-77
2023/01/19 03:00:28;;;;;;;24.13;6.03;;;;;;;10.03;88.99;99612.44;124692;1102;104195;-77
2023/01/19 03:03:16;;;;;;;25.50;6.20;;;;;;;10.01;88.63;99601.05;124548;1102;104362;-77
2023/01/19 03:06:00;;;;;;;25.60;5.80;;;;;;;9.95;88.71;99593.91;124618;1102;102201;-77
2023/01/19 03:08:47;;;;;;;23.93;5.87;;;;;;;9.93;88.50;99597.36;124626;1102;104325;-77
2023/01/19 03:11:19;;;;;;;23.50;5.90;;;;;;;9.89;88.41;99597.29;124643;1102;104312;-77
2023/01/19 03:13:54;;;;;;;25.90;6.57;;;;;;;9.86;89.02;99593.69;124776;1102;102054;-77
2023/01/19 03:16:30;;;;;;;31.63;6.27;;;;;;;9.82;88.93;99597.11;124698;1102;104175;-77
2023/01/19 03:19:10;;;;;;;23.20;6.10;;;;;;;9.78;88.61;99593.50;124581;1102;104063;-77
2023/01/19 03:21:45;;;;;;;26.50;5.57;;;;;;;9.75;88.49;99600.41;124610;1101;104220;-77
2023/01/19 03:24:20;;;;;;;27.87;5.37;;;;;;;9.70;89.11;99593.31;124646;1102;104169;-77
2023/01/19 03:26:57;;;;;;;26.47;5.83;;;;;;;9.66;88.60;99591.48;124820;1102;102051;-77
2023/01/19 03:29:33;;;;;;;29.53;6.30;;;;;;;9.63;88.54;99591.41;124645;1102;104186;-77
2023/01/19 03:32:10;;;;;;;27.47;6.23;;;;;;;9.60;88.94;99590.42;124659;1102;104150;-77
2023/01/19 03:34:44;;;;;;;21.37;5.50;;;;;;;9.56;89.03;99593.84;124680;1102;104248;-77
2023/01/19 03:37:20;;;;;;;30.33;7.07;;;;;;;9.53;89.03;99600.75;124733;1102;104195;-77
2023/01/19 03:39:51;;;;;;;25.00;5.80;;;;;;;9.48;88.69;99594.52;124589;1102;104645;-77
2023/01/19 03:42:24;;;;;;;31.53;6.77;;;;;;;9.47;89.22;99599.72;124596;1101;104238;-77
2023/01/19 03:44:59;;;;;;;24.40;6.10;;;;;;;9.44;89.22;99597.02;124535;1102;104179;-77
2023/01/19 03:47:32;;;;;;;26.40;6.27;;;;;;;9.43;89.10;99593.52;124621;1102;104201;-77
2023/01/19 03:50:07;;;;;;;26.27;5.97;;;;;;;9.41;88.91;99591.70;124550;1102;104214;-77
2023/01/19 03:52:38;;;;;;;24.87;5.80;;;;;;;9.41;89.19;99594.31;124576;1102;104239;-77
2023/01/19 03:55:12;;;;;;;27.07;5.40;;;;;;;9.37;89.13;99593.36;124551;1102;102084;-77
2023/01/19 03:57:44;;;;;;;26.77;6.20;;;;;;;9.35;88.95;99590.70;124714;1102;104310;-77
2023/01/19 04:00:17;;;;;;;27.27;5.43;;;;;;;9.34;89.00;99588.92;124707;1102;102335;-77
2023/01/19 04:02:48;;;;;;;23.53;5.37;;;;;;;9.32;89.08;99588.01;124700;1102;104166;-77
2023/01/19 04:05:19;;;;;;;26.90;5.97;;;;;;;9.30;89.45;99589.70;124620;1102;104204;-77
2023/01/19 04:07:52;;;;;;;26.67;5.70;;;;;;;9.28;89.42;99591.38;124677;1102;104389;-77
2023/01/19 04:10:24;;;;;;;30.00;6.40;;;;;;;9.28;89.23;99591.38;124639;1102;104172;-77
2023/01/19 04:13:00;;;;;;;26.87;6.03;;;;;;;9.27;88.84;99589.63;124529;1102;104166;-77
2023/01/19 04:15:32;;;;;;;28.57;6.53;;;;;;;9.20;89.11;99574.59;124647;1102;104271;-76
2023/01/19 04:18:04;;;;;;;31.13;5.80;;;;;;;9.23;89.60;99585.14;124565;1102;104242;-76
2023/01/19 04:20:35;;;;;;;35.77;6.07;;;;;;;9.23;89.47;99590.37;124615;1102;102109;-77
2023/01/19 04:23:06;;;;;;;26.67;5.93;;;;;;;9.22;89.49;99585.98;124551;1102;102383;-77
2023/01/19 04:25:38;;;;;;;27.93;5.70;;;;;;;9.18;89.73;99578.91;124562;1102;104084;-77
2023/01/19 04:28:09;;;;;;;27.80;6.63;;;;;;;9.17;89.75;99596.33;124565;1102;104241;-76
2023/01/19 04:30:40;;;;;;;29.23;6.03;;;;;;;9.17;89.69;99583.24;124604;1102;104375;-77
2023/01/19 04:33:11;;;;;;;30.13;6.20;;;;;;;9.17;89.72;99582.37;124653;1101;101862;-77
2023/01/19 04:35:42;;;;;;;26.23;5.83;;;;;;;9.15;89.69;99586.69;124566;1102;104245;-78
2023/01/19 04:38:14;;;;;;;30.35;5.85;;;;;;;9.14;89.70;99596.24;124644;1102;101826;-76
2023/01/19 04:40:45;;;;;;;34.10;6.40;;;;;;;9.13;89.22;99598.82;124602;1102;104341;-76
2023/01/19 04:43:16;;;;;;;31.17;6.23;;;;;;;9.12;89.77;99604.92;124565;1101;104172;-76
2023/01/19 04:45:49;;;;;;;29.37;6.40;;;;;;;9.09;89.94;99613.56;124613;1102;104169;-78
2023/01/19 04:48:20;;;;;;;27.90;5.50;;;;;;;9.08;89.59;99614.40;124736;1102;102463;-78
2023/01/19 04:50:52;;;;;;;31.97;6.17;;;;;;;9.07;89.49;99611.73;124895;1102;104258;-78
2023/01/19 04:53:23;;;;;;;27.93;6.10;;;;;;;9.05;89.75;99614.31;124815;1102;104204;-78
2023/01/19 04:55:56;;;;;;;32.70;6.13;;;;;;;9.02;89.73;99613.35;124777;1102;104211;-78
2023/01/19 04:58:27;;;;;;;26.23;6.17;;;;;;;8.97;89.98;99607.98;124871;1102;104210;-78
2023/01/19 05:00:59;;;;;;;31.77;6.50;;;;;;;8.96;89.94;99617.58;124855;1102;102112;-77
2023/01/19 05:03:30;;;;;;;29.90;6.60;;;;;;;8.95;89.62;99620.16;124799;1102;104201;-78
2023/01/19 05:06:01;;;;;;;33.10;7.03;;;;;;;8.93;89.67;99622.73;124858;1102;104225;-78
2023/01/19 05:08:33;;;;;;;31.13;6.43;;;;;;;8.92;89.52;99620.94;124834;1101;104322;-77
2023/01/19 05:11:04;;;;;;;25.37;6.07;;;;;;;8.90;89.89;99620.02;124848;1102;104239;-78
2023/01/19 05:13:36;;;;;;;31.50;7.00;;;;;;;8.86;89.93;99609.42;124762;1102;102411;-77
2023/01/19 05:16:08;;;;;;;37.87;8.03;;;;;;;8.83;89.95;99623.30;124741;1102;104179;-78
2023/01/19 05:18:40;;;;;;;33.27;7.33;;;;;;;8.79;89.44;99621.45;124992;1102;104133;-77
2023/01/19 05:21:11;;;;;;;26.47;7.13;;;;;;;8.77;89.51;99623.12;124986;1102;104242;-77
2023/01/19 05:23:42;;;;;;;32.90;7.03;;;;;;;8.73;90.25;99619.53;124806;1102;104245;-77
2023/01/19 05:26:13;;;;;;;33.67;8.47;;;;;;;8.73;90.52;99613.43;124616;1102;104415;-77
2023/01/19 05:28:45;;;;;;;37.60;7.87;;;;;;;8.71;89.98;99610.77;124585;1102;104373;-77
2023/01/19 05:31:16;;;;;;;32.13;8.13;;;;;;;8.67;89.81;99614.13;124642;1102;111675;-77
2023/01/19 05:33:48;;;;;;;42.40;8.37;;;;;;;8.64;89.86;99617.53;124699;1102;102215;-77
2023/01/19 05:36:19;;;;;;;36.80;7.93;;;;;;;8.63;90.17;99621.01;124733;1102;104185;-76
2023/01/19 05:38:51;;;;;;;32.60;7.93;;;;;;;8.66;90.55;99627.16;124794;1102;102066;-77
2023/01/19 05:41:22;;;;;;;30.90;7.80;;;;;;;8.64;90.23;99625.38;124659;1102;104239;-77
2023/01/19 05:43:54;;;;;;;31.77;7.27;;;;;;;8.62;89.96;99628.81;124782;1102;101972;-77
2023/01/19 05:46:25;;;;;;;35.00;7.80;;;;;;;8.59;89.78;99634.82;124720;1102;101868;-77
2023/01/19 05:48:57;;;;;;;38.93;8.53;;;;;;;8.59;90.23;99629.59;124643;1102;102044;-77
2023/01/19 05:51:33;;;;;;;29.83;7.57;;;;;;;8.60;89.96;99630.47;124619;1101;104185;-77
2023/01/19 05:54:06;;;;;;;32.17;7.17;;;;;;;8.57;90.47;99633.91;124690;1102;102487;-77
2023/01/19 05:56:38;;;;;;;35.13;7.67;;;;;;;8.58;90.56;99640.88;124639;1102;104185;-76
2023/01/19 05:59:09;;;;;;;33.50;8.37;;;;;;;8.58;90.04;99627.80;124728;1102;104200;-77
2023/01/19 06:01:40;;;;;;;39.53;7.63;;;;;;;8.59;90.37;99629.59;124757;1102;101900;-78
2023/01/19 06:04:12;;;;;;;33.77;7.70;;;;;;;8.61;90.05;99632.25;124729;1102;104300;-77
2023/01/19 06:06:43;;;;;;;35.43;7.60;;;;;;;8.60;89.89;99628.77;124761;1102;104210;-77
2023/01/19 06:09:16;;;;;;;31.53;7.93;;;;;;;8.57;90.28;99626.05;124661;1101;102025;-77
2023/01/19 06:11:47;;;;;;;36.47;7.50;;;;;;;8.58;90.65;99627.80;124497;1102;102754;-77
2023/01/19 06:14:19;;;;;;;37.17;8.17;;;;;;;8.59;90.17;99616.52;124651;1102;102199;-76
2023/01/19 06:16:50;;;;;;;34.47;8.43;;;;;;;8.60;90.33;99620.91;124543;1102;104393;-76
2023/01/19 06:19:22;;;;;;;33.20;8.37;;;;;;;8.63;90.54;99621.01;124587;1102;104294;-75
2023/01/19 06:21:53;;;;;;;33.83;9.17;;;;;;;8.66;90.26;99611.47;124652;1102;102110;-76
2023/01/19 06:24:24;;;;;;;32.63;9.03;;;;;;;8.66;90.84;99611.47;124728;1102;102996;-77
2023/01/19 06:26:56;;;;;;;34.80;8.13;;;;;;;8.68;91.06;99613.30;124447;1102;102518;-77
2023/01/19 06:29:28;;;;;;;30.60;8.97;;;;;;;8.75;90.93;99614.35;124734;1102;104377;-76
2023/01/19 06:31:59;;;;;;;31.70;8.70;;;;;;;8.79;91.20;99618.84;124736;1102;101903;-77
2023/01/19 06:34:32;;;;;;;41.00;8.33;;;;;;;8.83;90.45;99632.88;124872;1102;103443;-76
2023/01/19 06:37:04;;;;;;;37.83;7.60;;;;;;;8.87;91.16;99637.38;125013;1102;102079;-76
2023/01/19 06:39:39;;;;;;;33.90;8.50;;;;;;;8.95;90.86;99641.09;125139;1102;103894;-76
2023/01/19 06:42:11;;;;;;;33.13;8.07;;;;;;;8.99;90.53;99643.83;125036;1102;102099;-77
2023/01/19 06:44:46;;;;;;;40.77;8.27;;;;;;;9.05;91.25;99648.33;125154;1101;102819;-76
2023/01/19 06:47:18;;;;;;;36.93;9.17;;;;;;;9.11;91.23;99639.78;125085;1102;102045;-75
2023/01/19 06:49:49;;;;;;;42.27;9.23;;;;;;;9.18;91.10;99639.11;125163;1101;104742;-77
2023/01/19 06:52:21;;;;;;;34.40;8.77;;;;;;;9.23;91.10;99634.88;124983;1102;104040;-75
2023/01/19 06:54:53;;;;;;;34.90;8.63;;;;;;;9.30;91.02;99638.55;124813;1102;102878;-75
2023/01/19 06:57:27;;;;;;;39.55;8.75;;;;;;;9.39;90.95;99640.53;124841;1102;102450;-75
2023/01/19 07:00:10;;;;;;;40.50;9.40;;;;;;;9.48;91.23;99640.78;125058;1102;102828;-76
2023/01/19 07:02:44;;;;;;;36.03;8.93;;;;;;;9.53;90.64;99641.77;125747;1102;102358;-76
2023/01/19 07:05:18;;;;;;;40.43;8.80;;;;;;;9.56;90.82;99647.09;124982;1102;102401;-74
2023/01/19 07:07:54;;;;;;;34.63;10.47;;;;;;;9.60;91.03;99655.91;124798;1102;103975;-77
2023/01/19 07:10:31;;;;;;;38.47;7.90;;;;;;;9.62;91.13;99656.86;125274;1102;102244;-75
2023/01/19 07:13:11;;;;;;;31.93;8.50;;;;;;;9.67;90.90;99656.11;126230;1093;102314;31
2023/01/19 07:15:44;;;;;;;39.57;8.50;;;;;;;9.75;91.37;99658.92;124628;1103;102718;-76
2023/01/19 07:18:21;;;;;;;33.97;8.27;;;;;;;9.83;91.22;99659.12;124902;1102;103501;-77
2023/01/19 07:20:59;;;;;;;30.53;9.07;;;;;;;9.89;91.47;99657.56;124780;1102;102492;-77
2023/01/19 07:23:30;;;;;;;35.23;7.63;;;;;;;9.98;91.74;99662.12;124749;1102;103069;-78
2023/01/19 07:26:10;;;;;;;37.73;7.50;;;;;;;10.06;91.33;99665.81;124786;1102;104200;-78
2023/01/19 07:28:44;;;;;;;28.70;6.63;;;;;;;10.15;91.32;99667.78;124648;1102;102307;-77
2023/01/19 07:31:18;;;;;;;32.23;6.70;;;;;;;10.22;91.83;99663.56;124827;1102;103655;-75
2023/01/19 07:33:50;;;;;;;34.53;7.63;;;;;;;10.30;92.07;99671.61;124790;1102;108935;-75
2023/01/19 07:36:23;;;;;;;40.43;7.10;;;;;;;10.35;91.62;99662.17;124739;1102;104060;-76
2023/01/19 07:38:59;;;;;;;32.33;6.20;;;;;;;10.41;91.47;99663.19;124659;1104;103581;-81
2023/01/19 07:41:32;;;;;;;34.10;6.53;;;;;;;10.48;91.62;99669.45;124752;1105;103881;-77
2023/01/19 07:44:04;;;;;;;36.83;6.80;;;;;;;10.55;91.72;99671.37;124695;1105;118893;-77
2023/01/19 07:46:40;;;;;;;30.30;7.03;;;;;;;10.62;91.89;99669.76;124787;1102;104303;-79
2023/01/19 07:49:19;;;;;;;32.90;6.85;;;;;;;10.68;91.73;99672.52;124746;1105;104217;-76
2023/01/19 07:51:55;;;;;;;37.37;6.50;;;;;;;10.75;91.90;99666.56;124650;1105;103996;-77
2023/01/19 07:54:27;;;;;;;35.73;6.63;;;;;;;10.83;91.49;99668.45;124769;1102;102950;-79
2023/01/19 07:56:59;;;;;;;33.57;7.03;;;;;;;10.93;91.63;99676.55;124707;1105;102574;-76
2023/01/19 07:59:35;;;;;;;33.90;6.60;;;;;;;11.04;91.53;99675.90;124906;1102;103086;-77
2023/01/19 08:02:09;;;;;;;33.80;7.40;;;;;;;11.14;91.89;99670.87;124890;1105;103741;-79
2023/01/19 08:04:44;;;;;;;32.30;6.87;;;;;;;11.26;91.72;99670.20;124826;1102;111969;-77
2023/01/19 08:07:29;;;;;;;31.57;6.20;;;;;;;11.36;92.17;99670.39;124974;1102;104118;-77
2023/01/19 08:10:03;;;;;;;31.23;7.33;;;;;;;11.48;91.82;99673.25;124879;1102;103239;-78
2023/01/19 08:12:43;;;;;;;34.50;7.70;;;;;;;11.57;91.63;99672.55;124817;1102;102912;-77
2023/01/19 08:15:18;;;;;;;32.17;6.90;;;;;;;11.64;91.56;99671.78;124778;1102;102844;-77
2023/01/19 08:18:04;;;;;;;27.47;5.77;;;;;;;11.71;91.31;99671.05;124767;1102;102823;-76
2023/01/19 08:20:45;;;;;;;25.50;5.93;;;;;;;11.78;91.31;99666.77;124779;1102;102732;-77
2023/01/19 08:23:35;;;;;;;32.60;6.20;;;;;;;11.83;91.52;99666.00;124797;1102;104313;-78
2023/01/19 08:26:30;;;;;;;23.70;6.07;;;;;;;11.94;91.30;99662.72;124817;1101;104358;-77
2023/01/19 08:29:06;;;;;;;24.87;5.53;;;;;;;12.04;91.38;99654.10;124921;1102;104223;-77
2023/01/19 08:31:45;;;;;;;26.63;6.47;;;;;;;12.13;91.52;99643.73;124829;1102;103499;-78
2023/01/19 08:34:30;;;;;;;29.53;5.23;;;;;;;12.22;90.73;99648.27;124769;1102;103363;-77
2023/01/19 08:37:06;;;;;;;26.70;5.30;;;;;;;12.30;91.32;99651.89;124788;1102;103244;-76
2023/01/19 08:39:41;;;;;;;29.70;6.17;;;;;;;12.36;90.88;99651.11;124832;1102;104226;-77
2023/01/19 08:42:13;;;;;;;24.37;5.43;;;;;;;12.43;91.12;99647.68;124842;1102;103024;-77
2023/01/19 08:44:52;;;;;;;28.10;5.63;;;;;;;12.50;90.65;99644.28;124843;1103;103397;-77
2023/01/19 08:47:24;;;;;;;27.93;5.60;;;;;;;12.61;90.60;99638.30;125017;1102;102418;-77
2023/01/19 08:50:05;;;;;;;29.27;6.63;;;;;;;12.64;90.55;99630.45;124908;1102;103957;-78
2023/01/19 08:52:45;;;;;;;25.50;5.53;;;;;;;12.74;90.20;99627.05;124762;1102;104343;-79
2023/01/19 08:55:28;;;;;;;27.87;5.93;;;;;;;12.84;89.91;99612.25;124941;1102;103396;-78
2023/01/19 08:58:00;;;;;;;27.67;6.00;;;;;;;12.90;90.28;99604.42;125250;1102;103308;-79
2023/01/19 09:00:59;;;;;;;27.37;5.77;;;;;;;12.98;89.73;99596.62;125327;1102;103271;-80
2023/01/19 09:03:35;;;;;;;33.83;5.53;;;;;;;13.06;89.59;99603.75;124870;1102;102840;-79
2023/01/19 09:06:20;;;;;;;26.83;5.97;;;;;;;13.17;89.82;99582.80;125332;1102;102765;-79
2023/01/19 09:08:52;;;;;;;25.00;5.20;;;;;;;13.26;89.81;99572.36;125554;1102;102701;-79
2023/01/19 09:11:31;;;;;;;30.63;5.37;;;;;;;13.37;89.67;99576.86;124962;1102;103530;-78
2023/01/19 09:14:05;;;;;;;24.80;5.90;;;;;;;13.45;89.54;99575.20;124750;1102;102042;-78
2023/01/19 09:16:37;;;;;;;26.67;5.77;;;;;;;13.50;89.37;99570.84;124849;1102;104232;-80
2023/01/19 09:19:12;;;;;;;27.03;5.67;;;;;;;13.54;88.41;99564.75;124761;1102;104213;-77
2023/01/19 09:21:46;;;;;;;23.13;6.00;;;;;;;13.61;88.65;99563.91;124883;1102;102269;-78
2023/01/19 09:24:22;;;;;;;26.63;4.97;;;;;;;13.68;87.61;99556.05;124843;1102;102322;-80
2023/01/19 09:26:56;;;;;;;23.97;5.30;;;;;;;13.76;88.60;99564.89;125088;1101;101909;-78
2023/01/19 09:32:27;;;;;;;25.70;5.33;;;;;;;13.88;88.38;99543.89;125767;1102;104223;-77
2023/01/19 09:35:06;;;;;;;26.40;5.20;;;;;;;13.93;88.76;99538.66;125070;1101;103250;-77
2023/01/19 09:37:39;;;;;;;28.07;5.50;;;;;;;14.01;88.04;99543.11;124767;1103;102238;-76
2023/01/19 09:40:18;;;;;;;21.80;6.23;;;;;;;14.08;87.74;99536.11;124984;1102;102131;-77
2023/01/19 09:42:55;;;;;;;24.60;5.70;;;;;;;14.14;87.19;99530.88;124837;1102;102807;-77
2023/01/19 09:45:35;;;;;;;25.93;5.20;;;;;;;14.23;88.21;99518.59;124897;1102;103168;-77
2023/01/19 09:48:21;;;;;;;24.83;5.67;;;;;;;14.31;88.37;99508.98;124950;1102;104264;-79
2023/01/19 09:51:00;;;;;;;36.07;6.00;;;;;;;14.41;87.73;99502.85;125170;1102;103427;-80
2023/01/19 09:53:46;;;;;;;29.13;6.83;;;;;;;14.52;87.80;99493.24;124811;1102;103005;-77
2023/01/19 09:56:23;;;;;;;26.00;5.57;;;;;;;14.60;87.67;99495.94;124733;1102;104253;-78
2023/01/19 09:59:12;;;;;;;32.43;6.17;;;;;;;14.67;86.65;99505.63;124850;1102;102501;-77
2023/01/19 10:02:01;;;;;;;28.33;6.40;;;;;;;14.74;86.78;99501.27;124727;1102;104377;-77
2023/01/19 10:04:47;;;;;;;27.93;5.90;;;;;;;14.81;86.28;99518.88;124797;1102;104213;-77
2023/01/19 10:08:11;;;;;;;26.27;5.43;;;;;;;14.87;86.50;99505.69;124755;1102;104124;-76
2023/01/19 10:11:02;;;;;;;26.93;6.55;;;;;;;14.95;86.46;99508.34;125214;1102;102495;-77
2023/01/19 10:13:46;;;;;;;25.43;5.20;;;;;;;15.02;85.08;99517.16;124841;1102;102491;-76
2023/01/19 10:16:31;;;;;;;22.57;5.70;;;;;;;15.05;84.85;99523.34;124825;1102;103190;-76
2023/01/19 10:19:29;;;;;;;22.97;5.47;;;;;;;15.09;83.83;99530.38;124832;1102;102636;-76
2023/01/19 10:22:13;;;;;;;30.37;5.83;;;;;;;15.13;83.87;99526.00;124888;1102;103064;-76
2023/01/19 10:24:53;;;;;;;29.83;5.80;;;;;;;15.18;84.08;99540.09;124782;1102;103566;-76
2023/01/19 10:27:41;;;;;;;24.27;5.60;;;;;;;15.20;83.51;99532.17;124688;1102;104385;-76
2023/01/19 10:30:26;;;;;;;25.90;5.80;;;;;;;15.22;82.82;99530.40;124684;1102;104063;-78
2023/01/19 10:33:00;;;;;;;23.10;5.17;;;;;;;15.26;83.50;99529.53;125018;1102;102287;-76
2023/01/19 10:35:47;;;;;;;29.83;5.70;;;;;;;15.30;82.80;99517.19;124731;1102;103127;-76
2023/01/19 10:38:27;;;;;;;29.45;5.80;;;;;;;15.33;82.34;99518.06;124753;1102;117916;-75
2023/01/19 10:41:25;;;;;;;24.63;4.63;;;;;;;15.33;80.35;99518.06;124670;1105;102942;-76
2023/01/19 10:44:11;;;;;;;22.77;5.47;;;;;;;15.36;81.34;99525.12;124905;1102;102660;-75
2023/01/19 10:47:10;;;;;;;25.43;5.23;;;;;;;15.39;81.55;99526.00;124855;1102;103128;-75
2023/01/19 10:49:51;;;;;;;29.10;6.10;;;;;;;15.43;81.63;99525.13;125130;1102;102598;-74
2023/01/19 10:52:44;;;;;;;26.80;5.83;;;;;;;15.47;81.78;99515.43;124775;1102;102326;-76
2023/01/19 10:55:27;;;;;;;30.90;6.13;;;;;;;15.50;79.98;99503.98;124882;1102;102481;-76
2023/01/19 10:58:02;;;;;;;21.80;4.83;;;;;;;15.53;79.58;99504.86;124969;1102;104048;-77
2023/01/19 11:00:38;;;;;;;24.60;5.63;;;;;;;15.55;79.96;99503.11;124964;1102;102329;-78
2023/01/19 11:03:25;;;;;;;26.53;6.07;;;;;;;15.58;79.33;99518.98;124955;1102;103071;-80
2023/01/19 11:06:21;;;;;;;25.73;6.17;;;;;;;15.63;79.31;99503.11;124956;1102;102336;-77
2023/01/19 11:09:15;;;;;;;25.70;6.20;;;;;;;15.69;79.06;99504.84;124978;1102;107602;-77
2023/01/19 11:11:50;;;;;;;26.50;5.57;;;;;;;15.73;79.04;99498.69;125961;1102;103072;-77
2023/01/19 11:14:25;;;;;;;32.20;5.50;;;;;;;15.73;78.84;99504.84;125900;1102;102629;-80
2023/01/19 11:17:00;;;;;;;26.40;6.10;;;;;;;15.73;79.28;99509.27;126038;1101;101902;-76
2023/01/19 11:19:33;;;;;;;25.20;5.50;;;;;;;15.73;78.92;99512.78;125990;1102;103094;-78
2023/01/19 11:22:21;;;;;;;25.40;5.80;;;;;;;15.74;76.15;99508.39;126032;1102;102106;-79
2023/01/19 11:25:29;;;;;;;24.05;6.40;;;;;;;15.78;78.20;99511.06;125717;1102;102821;-79
2023/01/19 11:28:03;;;;;;;31.20;5.57;;;;;;;15.83;77.56;99512.80;126020;1102;102800;-79
2023/01/19 11:30:38;;;;;;;27.60;5.50;;;;;;;15.84;76.52;99510.16;125755;1102;102029;-78
2023/01/19 11:33:28;;;;;;;25.73;5.20;;;;;;;15.88;77.52;99521.59;125872;1102;104561;-79
2023/01/19 11:36:19;;;;;;;26.93;5.87;;;;;;;15.91;77.62;99511.92;125788;1102;103949;-77
2023/01/19 11:39:00;;;;;;;25.57;5.70;;;;;;;15.94;77.64;99517.20;125842;1102;101883;-78
2023/01/19 11:41:38;;;;;;;24.10;5.17;;;;;;;15.93;76.53;99510.14;125742;1102;102323;-79
2023/01/19 11:44:21;;;;;;;29.73;6.03;;;;;;;15.96;76.08;99504.84;125820;1102;102868;-78
2023/01/19 11:46:57;;;;;;;25.83;5.63;;;;;;;15.99;76.38;99506.61;125792;1105;102704;-79
2023/01/19 11:49:39;;;;;;;30.27;5.47;;;;;;;16.03;77.00;99500.41;125816;1101;101826;-78
2023/01/19 11:52:24;;;;;;;33.73;8.00;;;;;;;16.07;76.27;99501.30;125997;1102;102580;-78
2023/01/19 11:55:06;;;;;;;25.27;6.17;;;;;;;16.08;76.57;99498.66;125983;1102;102344;-78
2023/01/19 11:58:03;;;;;;;26.73;5.30;;;;;;;16.12;76.58;99494.22;126175;1102;101800;-79
2023/01/19 12:00:42;;;;;;;28.87;5.23;;;;;;;16.12;74.93;99492.45;126221;1101;118595;-79
2023/01/19 12:03:22;;;;;;;27.13;5.30;;;;;;;16.12;75.86;99484.50;125943;1102;102548;-78
2023/01/19 12:05:57;;;;;;;24.67;5.37;;;;;;;16.13;76.06;99495.99;126122;1101;102693;-80